Time;durP1;ratioP1;P1;durP2;ratioP2;P2;SDS_P1;SDS_P2;PMS_P1;PMS_P2;Temp;Humidity;BMP_temperature;BMP_pressure;BME280_temperature;BME280_humidity;BME280_pressure;Samples;Min_cycle;Max_cycle;Signal;HPM_P1;HPM_P2
2020/12/05 00:01:59;;;;;;;14.83;5.77;;;;;;;;;;10170465;28;20038;-64
2020/12/05 00:06:56;;;;;;;8.33;5.27;;;;;;;;;;10238346;28;20439;-61
2020/12/05 00:11:54;;;;;;;11.63;5.60;;;;;;;;;;10177621;28;20102;-62
2020/12/05 00:16:51;;;;;;;14.50;6.67;;;;;;;;;;10209452;28;20030;-62
2020/12/05 00:21:52;;;;;;;16.43;5.57;;;;;;;;;;10244739;28;20026;-62
2020/12/05 00:26:50;;;;;;;19.83;6.30;;;;;;;;;;10249581;28;20046;-62
2020/12/05 00:31:49;;;;;;;9.00;5.10;;;;;;;;;;10208717;28;20049;-62
2020/12/05 00:36:46;;;;;;;13.07;5.53;;;;;;;;;;10195151;28;20130;-62
2020/12/05 00:41:44;;;;;;;12.37;5.27;;;;;;;;;;10197730;28;20121;-62
2020/12/05 00:46:41;;;;;;;7.90;4.67;;;;;;;;;;10223172;28;20045;-62
2020/12/05 00:51:39;;;;;;;18.30;5.97;;;;;;;;;;10199803;28;20038;-61
2020/12/05 00:56:36;;;;;;;8.43;4.10;;;;;;;;;;10246409;28;20073;-61
2020/12/05 01:01:34;;;;;;;4.90;3.60;;;;;;;;;;10190546;28;20069;-62
2020/12/05 01:06:31;;;;;;;10.73;3.00;;;;;;;;;;10196274;28;21270;-62
2020/12/05 01:11:28;;;;;;;6.37;2.70;;;;;;;;;;10218778;28;20034;-63
2020/12/05 01:16:27;;;;;;;5.60;3.30;;;;;;;;;;10212089;28;20257;-64
2020/12/05 01:21:24;;;;;;;4.30;3.95;;;;;;;;;;10200064;28;20393;-62
2020/12/05 01:26:22;;;;;;;5.80;2.70;;;;;;;;;;10210788;28;20413;-61
2020/12/05 01:31:20;;;;;;;1.73;1.63;;;;;;;;;;10208935;28;20104;-59
2020/12/05 01:36:17;;;;;;;3.53;2.03;;;;;;;;;;10203118;28;20041;-59
2020/12/05 01:41:15;;;;;;;11.07;4.63;;;;;;;;;;10231406;28;20034;-63
2020/12/05 01:46:52;;;;;;;10.27;5.75;;;;;;;;;;10247762;28;20045;-62
2020/12/05 01:51:50;;;;;;;14.73;5.88;;;;;;;;;;10155327;28;20510;-62
2020/12/05 01:56:58;;;;;;;18.48;7.90;;;;;;;;;;10211313;28;20068;-61
2020/12/05 02:01:56;;;;;;;14.65;7.68;;;;;;;;;;10221834;28;20030;-62
2020/12/05 02:07:04;;;;;;;15.65;7.47;;;;;;;;;;10240685;28;20495;-62
2020/12/05 02:12:11;;;;;;;16.60;6.40;;;;;;;;;;10206952;28;20118;-63
2020/12/05 02:17:09;;;;;;;12.68;6.25;;;;;;;;;;10201009;28;20492;-62
2020/12/05 02:22:10;;;;;;;9.38;4.32;;;;;;;;;;10213931;28;20042;-63
2020/12/05 02:27:07;;;;;;;18.25;8.95;;;;;;;;;;10196177;28;20042;-62
2020/12/05 02:32:05;;;;;;;16.00;6.63;;;;;;;;;;10201924;28;20424;-61
2020/12/05 02:37:04;;;;;;;12.40;6.73;;;;;;;;;;10194110;28;20046;-60
2020/12/05 02:42:02;;;;;;;21.13;8.57;;;;;;;;;;10185486;28;20038;-62
2020/12/05 02:46:59;;;;;;;18.17;7.77;;;;;;;;;;10209950;28;20039;-61
2020/12/05 02:51:57;;;;;;;17.60;8.67;;;;;;;;;;10182970;28;20041;-62
2020/12/05 02:56:54;;;;;;;16.70;7.20;;;;;;;;;;10188706;28;20815;-62
2020/12/05 03:01:52;;;;;;;15.00;7.13;;;;;;;;;;10189155;28;20031;-63
2020/12/05 03:06:49;;;;;;;14.20;7.70;;;;;;;;;;10189362;28;20403;-63
2020/12/05 03:11:47;;;;;;;13.63;5.57;;;;;;;;;;10170783;28;20069;-60
2020/12/05 03:16:44;;;;;;;12.40;5.03;;;;;;;;;;10173554;28;20045;-61
2020/12/05 03:21:41;;;;;;;13.23;5.90;;;;;;;;;;10190429;28;20045;-62
2020/12/05 03:26:39;;;;;;;17.63;7.97;;;;;;;;;;10197048;28;20519;-61
2020/12/05 03:31:47;;;;;;;19.50;8.83;;;;;;;;;;10230342;28;20353;-61
2020/12/05 03:36:44;;;;;;;23.97;11.47;;;;;;;;;;10209987;28;20035;-64
2020/12/05 03:41:42;;;;;;;24.10;10.57;;;;;;;;;;10196353;28;20038;-63
2020/12/05 03:46:39;;;;;;;21.50;9.67;;;;;;;;;;10225224;28;20149;-64
2020/12/05 03:51:37;;;;;;;15.03;8.23;;;;;;;;;;10204629;28;20050;-66
2020/12/05 03:56:34;;;;;;;24.90;11.07;;;;;;;;;;10188717;28;20043;-63
2020/12/05 04:01:31;;;;;;;8.77;5.73;;;;;;;;;;10186237;28;20117;-62
2020/12/05 04:06:29;;;;;;;25.73;10.30;;;;;;;;;;10186843;28;20243;-60
2020/12/05 04:11:26;;;;;;;15.50;6.27;;;;;;;;;;10185550;28;20756;-62
2020/12/05 04:16:24;;;;;;;4.80;3.20;;;;;;;;;;10186800;28;20496;-62
2020/12/05 04:21:21;;;;;;;13.20;6.50;;;;;;;;;;10197504;28;20150;-63
2020/12/05 04:26:19;;;;;;;9.03;5.53;;;;;;;;;;10182833;28;20061;-65
2020/12/05 04:31:16;;;;;;;11.60;6.37;;;;;;;;;;10190098;28;20034;-63
2020/12/05 04:36:14;;;;;;;3.80;3.13;;;;;;;;;;10186544;28;20042;-63
2020/12/05 04:41:11;;;;;;;10.43;5.55;;;;;;;;;;10185340;28;20486;-62
2020/12/05 04:46:09;;;;;;;7.33;4.37;;;;;;;;;;10203965;28;20050;-61
2020/12/05 04:51:08;;;;;;;13.17;4.80;;;;;;;;;;10231286;28;20042;-60
2020/12/05 04:56:06;;;;;;;4.55;4.05;;;;;;;;;;10231272;28;20141;-60
2020/12/05 05:01:03;;;;;;;12.57;4.73;;;;;;;;;;10222984;28;20038;-62
2020/12/05 05:06:00;;;;;;;14.57;7.70;;;;;;;;;;10195643;28;20093;-65
2020/12/05 05:11:11;;;;;;;19.77;8.50;;;;;;;;;;10194335;28;20069;-63
2020/12/05 05:16:15;;;;;;;12.82;6.82;;;;;;;;;;10232150;28;20141;-63
2020/12/05 05:21:31;;;;;;;19.70;9.75;;;;;;;;;;10226345;28;20045;-62
2020/12/05 05:26:29;;;;;;;14.73;8.00;;;;;;;;;;10195699;28;20137;-63
2020/12/05 05:31:43;;;;;;;15.90;8.00;;;;;;;;;;10204213;28;20035;-62
2020/12/05 05:36:42;;;;;;;12.98;6.90;;;;;;;;;;10187661;28;21067;-58
2020/12/05 05:41:44;;;;;;;23.25;9.98;;;;;;;;;;10189304;28;20065;-65
2020/12/05 05:46:43;;;;;;;20.30;10.13;;;;;;;;;;10193055;28;20072;-61
2020/12/05 05:51:40;;;;;;;16.05;8.23;;;;;;;;;;10201700;28;20072;-62
2020/12/05 05:56:37;;;;;;;13.47;7.53;;;;;;;;;;10162606;28;20508;-62
2020/12/05 06:01:36;;;;;;;16.80;6.53;;;;;;;;;;10202351;28;20042;-61
2020/12/05 06:06:33;;;;;;;26.58;11.30;;;;;;;;;;10192222;28;20042;-62
2020/12/05 06:11:33;;;;;;;24.77;11.80;;;;;;;;;;10193052;28;20046;-63
2020/12/05 06:16:31;;;;;;;24.65;10.48;;;;;;;;;;10189633;28;20046;-60
2020/12/05 06:21:30;;;;;;;18.13;10.05;;;;;;;;;;10200340;28;20049;-61
2020/12/05 06:26:29;;;;;;;9.13;5.05;;;;;;;;;;10192615;28;20444;-62
2020/12/05 06:31:42;;;;;;;13.88;6.13;;;;;;;;;;10195275;28;20036;-63
2020/12/05 06:36:40;;;;;;;18.42;7.47;;;;;;;;;;10170877;28;20046;-61
2020/12/05 06:41:48;;;;;;;23.45;9.88;;;;;;;;;;10184803;28;20053;-64
2020/12/05 06:46:52;;;;;;;17.92;9.32;;;;;;;;;;10171008;28;20066;-60
2020/12/05 06:51:49;;;;;;;30.48;11.98;;;;;;;;;;10188293;28;20118;-62
2020/12/05 06:56:47;;;;;;;19.77;8.63;;;;;;;;;;10186535;28;20046;-61
2020/12/05 07:01:44;;;;;;;20.20;9.57;;;;;;;;;;10171752;28;20049;-63
2020/12/05 07:06:42;;;;;;;15.47;6.77;;;;;;;;;;10170662;28;20034;-64
2020/12/05 07:11:39;;;;;;;9.40;6.83;;;;;;;;;;10180395;28;20401;-61
2020/12/05 07:16:39;;;;;;;18.57;6.33;;;;;;;;;;10191056;28;20032;-61
2020/12/05 07:21:37;;;;;;;19.60;8.93;;;;;;;;;;10185159;28;20034;-63
2020/12/05 07:26:34;;;;;;;10.33;5.83;;;;;;;;;;10204041;28;20069;-62
2020/12/05 07:31:32;;;;;;;20.27;8.23;;;;;;;;;;10178675;28;20041;-62
2020/12/05 07:36:36;;;;;;;22.83;10.77;;;;;;;;;;10207739;28;20030;-63
2020/12/05 07:41:34;;;;;;;26.10;11.35;;;;;;;;;;10229153;28;20436;-63
2020/12/05 07:46:31;;;;;;;21.27;8.73;;;;;;;;;;10209064;28;20034;-62
2020/12/05 07:51:29;;;;;;;26.40;14.53;;;;;;;;;;10222394;28;20084;-65
2020/12/05 07:56:26;;;;;;;28.27;12.47;;;;;;;;;;10226295;28;20045;-63
2020/12/05 08:01:29;;;;;;;18.93;9.20;;;;;;;;;;10221356;28;20818;-63
2020/12/05 08:06:33;;;;;;;23.73;9.40;;;;;;;;;;10240005;28;20520;-62
2020/12/05 08:11:39;;;;;;;20.67;10.60;;;;;;;;;;10184443;28;20056;-63
2020/12/05 08:16:37;;;;;;;12.30;8.02;;;;;;;;;;10175383;28;20046;-65
2020/12/05 08:21:35;;;;;;;10.18;4.93;;;;;;;;;;10189039;28;20481;-62
2020/12/05 08:26:33;;;;;;;28.55;12.32;;;;;;;;;;10224936;28;20030;-64
2020/12/05 08:31:31;;;;;;;15.50;7.30;;;;;;;;;;10219391;28;20103;-63
2020/12/05 08:36:33;;;;;;;6.03;4.80;;;;;;;;;;10218809;28;20296;-64
2020/12/05 08:41:40;;;;;;;19.25;10.63;;;;;;;;;;10230883;28;20038;-63
2020/12/05 08:46:37;;;;;;;16.38;8.90;;;;;;;;;;10178656;28;20082;-63
2020/12/05 08:51:34;;;;;;;17.50;7.20;;;;;;;;;;10183773;28;21650;-63
2020/12/05 08:56:32;;;;;;;20.60;9.17;;;;;;;;;;10221121;28;20034;-62
2020/12/05 09:01:55;;;;;;;17.43;6.80;;;;;;;;;;10190299;28;20035;-61
2020/12/05 09:06:53;;;;;;;25.15;9.50;;;;;;;;;;10188038;28;20051;-65
2020/12/05 09:12:00;;;;;;;21.45;11.00;;;;;;;;;;10185129;28;20034;-65
2020/12/05 09:16:57;;;;;;;18.98;10.25;;;;;;;;;;10233484;28;20038;-63
2020/12/05 09:21:55;;;;;;;17.53;8.83;;;;;;;;;;10179380;28;20030;-62
2020/12/05 09:26:54;;;;;;;23.83;11.10;;;;;;;;;;10190378;28;20026;-65
2020/12/05 09:31:52;;;;;;;25.40;12.90;;;;;;;;;;10223930;28;20344;-65
2020/12/05 09:36:49;;;;;;;23.00;11.85;;;;;;;;;;10195176;28;20093;-64
2020/12/05 09:41:46;;;;;;;34.97;14.40;;;;;;;;;;10179225;28;20145;-65
2020/12/05 09:46:44;;;;;;;28.70;14.03;;;;;;;;;;10173601;28;20140;-64
2020/12/05 09:51:41;;;;;;;29.87;13.73;;;;;;;;;;10184797;28;20062;-63
2020/12/05 09:56:39;;;;;;;26.23;13.43;;;;;;;;;;10162566;28;20042;-64
2020/12/05 10:01:36;;;;;;;26.90;14.70;;;;;;;;;;10213208;28;20124;-64
2020/12/05 10:06:33;;;;;;;35.73;15.73;;;;;;;;;;10192046;28;20129;-64
2020/12/05 10:11:30;;;;;;;35.80;15.10;;;;;;;;;;10178501;28;20500;-64
2020/12/05 10:16:28;;;;;;;26.20;12.87;;;;;;;;;;10174744;28;20042;-64
2020/12/05 10:21:25;;;;;;;30.37;12.57;;;;;;;;;;10199553;28;20125;-64
2020/12/05 10:26:23;;;;;;;28.77;12.90;;;;;;;;;;10204096;28;20078;-64
2020/12/05 10:31:20;;;;;;;19.33;9.07;;;;;;;;;;10176348;28;20035;-64
2020/12/05 10:36:18;;;;;;;15.67;8.47;;;;;;;;;;10202235;28;20061;-62
2020/12/05 10:41:15;;;;;;;30.33;14.70;;;;;;;;;;10186874;28;20039;-65
2020/12/05 10:46:13;;;;;;;35.57;14.60;;;;;;;;;;10169056;28;20477;-63
2020/12/05 10:51:10;;;;;;;35.63;16.13;;;;;;;;;;10214837;28;20401;-64
2020/12/05 10:56:08;;;;;;;23.13;13.57;;;;;;;;;;10221469;28;20057;-65
2020/12/05 11:01:05;;;;;;;31.20;12.60;;;;;;;;;;10175121;28;20046;-65
2020/12/05 11:06:03;;;;;;;14.33;6.87;;;;;;;;;;10191747;28;20401;-63
2020/12/05 11:11:00;;;;;;;35.73;15.20;;;;;;;;;;10173913;28;20046;-62
2020/12/05 11:15:57;;;;;;;26.27;12.13;;;;;;;;;;10163804;28;20050;-64
2020/12/05 11:20:55;;;;;;;33.87;14.93;;;;;;;;;;10163320;28;20723;-64
2020/12/05 11:25:52;;;;;;;36.60;15.60;;;;;;;;;;10197843;23;20546;-60
2020/12/05 11:30:50;;;;;;;26.40;12.53;;;;;;;;;;10213307;23;20517;-66
2020/12/05 11:35:48;;;;;;;28.50;12.80;;;;;;;;;;10199850;28;20049;-64
2020/12/05 11:40:49;;;;;;;30.23;14.10;;;;;;;;;;10227498;28;20034;-63
2020/12/05 11:45:46;;;;;;;31.33;13.98;;;;;;;;;;10258697;28;20805;-62
2020/12/05 11:50:44;;;;;;;24.07;12.33;;;;;;;;;;10301171;28;20387;-63
2020/12/05 11:55:41;;;;;;;24.20;13.00;;;;;;;;;;10264915;28;20584;-62
2020/12/05 12:00:39;;;;;;;33.57;15.90;;;;;;;;;;10260267;28;20508;-65
2020/12/05 12:05:36;;;;;;;33.27;14.90;;;;;;;;;;10271736;28;20083;-63
2020/12/05 12:10:33;;;;;;;30.43;14.07;;;;;;;;;;10254947;28;20021;-63
2020/12/05 12:15:31;;;;;;;27.13;14.50;;;;;;;;;;10294716;28;20276;-63
2020/12/05 12:20:28;;;;;;;36.83;14.37;;;;;;;;;;10267173;28;20037;-62
2020/12/05 12:25:25;;;;;;;15.33;8.53;;;;;;;;;;10261373;28;20030;-63
2020/12/05 12:30:23;;;;;;;33.50;13.17;;;;;;;;;;10268514;28;20036;-63
2020/12/05 12:35:20;;;;;;;30.87;12.80;;;;;;;;;;10260764;28;20136;-63
2020/12/05 12:40:18;;;;;;;24.87;12.60;;;;;;;;;;10255530;28;20680;-62
2020/12/05 12:45:20;;;;;;;14.20;8.00;;;;;;;;;;10276333;28;20434;-63
2020/12/05 12:50:17;;;;;;;23.33;10.43;;;;;;;;;;10273852;28;20049;-63
2020/12/05 12:55:15;;;;;;;31.13;14.53;;;;;;;;;;10259209;28;20052;-63
2020/12/05 13:00:12;;;;;;;31.70;13.37;;;;;;;;;;10252060;28;20419;-61
2020/12/05 13:05:10;;;;;;;33.93;14.37;;;;;;;;;;10272907;28;20037;-63
2020/12/05 13:10:07;;;;;;;26.30;12.37;;;;;;;;;;10273504;28;20042;-63
2020/12/05 13:15:04;;;;;;;20.67;11.90;;;;;;;;;;10275438;28;20148;-63
2020/12/05 13:20:02;;;;;;;24.73;12.47;;;;;;;;;;10271643;28;20095;-63
2020/12/05 13:24:59;;;;;;;24.40;12.00;;;;;;;;;;10270052;28;20038;-63
2020/12/05 13:29:57;;;;;;;24.30;11.57;;;;;;;;;;10270136;28;20030;-64
2020/12/05 13:34:54;;;;;;;31.83;13.70;;;;;;;;;;10235157;28;20045;-64
2020/12/05 13:39:51;;;;;;;25.80;14.13;;;;;;;;;;10280491;28;20288;-62
2020/12/05 13:44:49;;;;;;;30.60;13.17;;;;;;;;;;10266782;28;20041;-62
2020/12/05 13:49:46;;;;;;;26.87;12.53;;;;;;;;;;10263737;28;20049;-63
2020/12/05 13:54:44;;;;;;;32.57;14.83;;;;;;;;;;10258586;28;20041;-63
2020/12/05 13:59:41;;;;;;;23.17;11.57;;;;;;;;;;10281613;28;20041;-63
2020/12/05 14:04:38;;;;;;;34.47;16.37;;;;;;;;;;10265620;28;20399;-62
2020/12/05 14:09:36;;;;;;;24.00;11.63;;;;;;;;;;10287269;28;20058;-63
2020/12/05 14:14:34;;;;;;;26.53;12.10;;;;;;;;;;10254730;28;20038;-64
2020/12/05 14:19:31;;;;;;;32.40;12.43;;;;;;;;;;10280236;28;20041;-64
2020/12/05 14:24:31;;;;;;;36.17;15.37;;;;;;;;;;10261354;28;20042;-64
2020/12/05 14:29:30;;;;;;;26.70;12.35;;;;;;;;;;10284431;28;20033;-64
2020/12/05 14:34:28;;;;;;;19.63;10.40;;;;;;;;;;10231333;28;20042;-64
2020/12/05 14:39:25;;;;;;;22.20;10.40;;;;;;;;;;10255688;28;20034;-63
2020/12/05 14:44:22;;;;;;;23.03;10.80;;;;;;;;;;10260055;28;20047;-64
2020/12/05 14:49:20;;;;;;;24.02;10.15;;;;;;;;;;10285478;28;20053;-63
2020/12/05 14:54:18;;;;;;;12.00;7.73;;;;;;;;;;10251061;28;20037;-62
2020/12/05 14:59:16;;;;;;;29.93;14.93;;;;;;;;;;10265006;28;20103;-63
2020/12/05 15:04:14;;;;;;;15.60;9.80;;;;;;;;;;10276790;28;20034;-64
2020/12/05 15:09:12;;;;;;;27.40;12.23;;;;;;;;;;10269274;28;20030;-62
2020/12/05 15:14:09;;;;;;;31.57;16.13;;;;;;;;;;10277740;28;20038;-63
2020/12/05 15:19:06;;;;;;;36.93;17.67;;;;;;;;;;10291394;28;21115;-63
2020/12/05 15:24:04;;;;;;;26.53;13.33;;;;;;;;;;10264120;28;20025;-64
2020/12/05 15:29:01;;;;;;;31.47;13.93;;;;;;;;;;10285267;28;20145;-63
2020/12/05 15:33:58;;;;;;;22.07;10.80;;;;;;;;;;10284375;28;20511;-64
2020/12/05 15:38:56;;;;;;;12.70;7.73;;;;;;;;;;10243147;28;20026;-65
2020/12/05 15:43:53;;;;;;;12.80;8.10;;;;;;;;;;10263105;28;20037;-61
2020/12/05 15:48:52;;;;;;;20.73;7.03;;;;;;;;;;10273997;28;20384;-64
2020/12/05 15:53:55;;;;;;;21.30;10.23;;;;;;;;;;10241685;28;20061;-63
2020/12/05 15:58:53;;;;;;;18.27;9.50;;;;;;;;;;10243324;28;20052;-64
2020/12/05 16:03:51;;;;;;;20.80;8.60;;;;;;;;;;10276902;28;20041;-62
2020/12/05 16:08:48;;;;;;;16.07;8.20;;;;;;;;;;10273508;28;20045;-64
2020/12/05 16:13:47;;;;;;;28.43;12.77;;;;;;;;;;10259504;28;20062;-64
2020/12/05 16:18:44;;;;;;;15.77;9.10;;;;;;;;;;10274766;28;20029;-64
2020/12/05 16:23:42;;;;;;;12.47;5.60;;;;;;;;;;10267364;28;20434;-64
2020/12/05 16:28:39;;;;;;;11.53;6.97;;;;;;;;;;10283892;28;20029;-64
2020/12/05 16:33:37;;;;;;;8.77;6.17;;;;;;;;;;10272704;28;20038;-63
2020/12/05 16:38:34;;;;;;;20.17;8.93;;;;;;;;;;10266101;28;21245;-64
2020/12/05 16:43:31;;;;;;;5.03;4.00;;;;;;;;;;10277654;28;20041;-63
2020/12/05 16:48:29;;;;;;;11.00;6.10;;;;;;;;;;10266106;28;20044;-64
2020/12/05 16:53:26;;;;;;;14.93;7.17;;;;;;;;;;10251421;28;20033;-64
2020/12/05 16:58:24;;;;;;;5.93;3.73;;;;;;;;;;10266822;28;20094;-64
2020/12/05 17:03:21;;;;;;;11.60;6.23;;;;;;;;;;10278482;28;20572;-63
2020/12/05 17:08:19;;;;;;;7.53;5.07;;;;;;;;;;10268416;28;20046;-63
2020/12/05 17:13:16;;;;;;;16.42;7.20;;;;;;;;;;10264129;28;20100;-65
2020/12/05 17:18:14;;;;;;;12.87;7.07;;;;;;;;;;10285693;28;20042;-64
2020/12/05 17:23:11;;;;;;;18.60;8.40;;;;;;;;;;10283537;28;20063;-65
2020/12/05 17:28:09;;;;;;;29.50;14.17;;;;;;;;;;10276445;28;20509;-64
2020/12/05 17:33:06;;;;;;;37.70;16.00;;;;;;;;;;10273306;28;20033;-64
2020/12/05 17:38:03;;;;;;;17.73;7.87;;;;;;;;;;10250406;28;20042;-62
2020/12/05 17:43:01;;;;;;;41.73;19.73;;;;;;;;;;10242193;28;20030;-63
2020/12/05 17:47:58;;;;;;;39.13;17.87;;;;;;;;;;10265931;28;20034;-64
2020/12/05 17:52:55;;;;;;;38.30;18.93;;;;;;;;;;10269779;28;20045;-65
2020/12/05 17:57:54;;;;;;;42.60;19.97;;;;;;;;;;10242984;28;20041;-64
2020/12/05 18:02:51;;;;;;;41.03;19.30;;;;;;;;;;10265408;28;20306;-63
2020/12/05 18:07:49;;;;;;;37.53;17.67;;;;;;;;;;10276009;28;20037;-63
2020/12/05 18:12:46;;;;;;;28.73;15.20;;;;;;;;;;10264634;28;20084;-63
2020/12/05 18:17:43;;;;;;;29.97;15.33;;;;;;;;;;10286405;28;20069;-63
2020/12/05 18:22:41;;;;;;;24.43;12.23;;;;;;;;;;10282228;28;20064;-64
2020/12/05 18:27:38;;;;;;;38.23;17.70;;;;;;;;;;10272172;28;20431;-64
2020/12/05 18:32:36;;;;;;;37.47;17.17;;;;;;;;;;10272537;28;20037;-63
2020/12/05 18:37:34;;;;;;;36.13;15.80;;;;;;;;;;10280942;28;20044;-63
2020/12/05 18:42:32;;;;;;;31.70;14.57;;;;;;;;;;10291663;28;20037;-63
2020/12/05 18:47:29;;;;;;;33.10;15.13;;;;;;;;;;10267349;28;20821;-64
2020/12/05 18:52:27;;;;;;;39.13;16.37;;;;;;;;;;10250989;28;20064;-62
2020/12/05 18:57:24;;;;;;;25.43;14.97;;;;;;;;;;10285302;28;20428;-64
2020/12/05 19:02:21;;;;;;;9.73;5.43;;;;;;;;;;10277950;28;20034;-64
2020/12/05 19:07:19;;;;;;;19.07;12.07;;;;;;;;;;10275700;28;20526;-64
2020/12/05 19:12:16;;;;;;;23.80;12.83;;;;;;;;;;10278179;28;20040;-64
2020/12/05 19:17:14;;;;;;;26.03;12.30;;;;;;;;;;10288696;28;20128;-65
2020/12/05 19:22:11;;;;;;;39.90;17.20;;;;;;;;;;10255161;28;20034;-64
2020/12/05 19:27:10;;;;;;;37.20;16.00;;;;;;;;;;10283059;28;20053;-63
2020/12/05 19:32:07;;;;;;;30.00;14.82;;;;;;;;;;10274503;28;20124;-64
2020/12/05 19:37:05;;;;;;;28.23;13.47;;;;;;;;;;10280020;28;20041;-64
2020/12/05 19:42:03;;;;;;;33.83;13.82;;;;;;;;;;10257778;28;20061;-64
2020/12/05 19:47:02;;;;;;;34.50;16.60;;;;;;;;;;10283176;28;20570;-64
2020/12/05 19:52:00;;;;;;;26.75;13.40;;;;;;;;;;10275515;28;20047;-64
2020/12/05 19:56:58;;;;;;;25.87;12.70;;;;;;;;;;10269324;28;20377;-64
2020/12/05 20:01:55;;;;;;;32.40;14.33;;;;;;;;;;10295274;28;20619;-64
2020/12/05 20:06:54;;;;;;;27.20;13.80;;;;;;;;;;10286282;28;20068;-64
2020/12/05 20:11:51;;;;;;;30.60;14.00;;;;;;;;;;10287936;28;20138;-64
2020/12/05 20:16:48;;;;;;;20.80;9.17;;;;;;;;;;10288153;28;20495;-64
2020/12/05 20:21:50;;;;;;;23.70;10.90;;;;;;;;;;10260285;28;20037;-64
2020/12/05 20:26:47;;;;;;;16.08;9.63;;;;;;;;;;10276797;28;20038;-64
2020/12/05 20:31:46;;;;;;;21.87;13.03;;;;;;;;;;10258122;28;20041;-65
2020/12/05 20:36:43;;;;;;;10.80;6.55;;;;;;;;;;10275176;28;20049;-63
2020/12/05 20:41:41;;;;;;;15.90;9.93;;;;;;;;;;10271219;28;20033;-64
2020/12/05 20:46:39;;;;;;;26.58;12.88;;;;;;;;;;10266808;28;20037;-64
2020/12/05 20:51:36;;;;;;;31.57;12.60;;;;;;;;;;10278758;28;20030;-63
2020/12/05 20:56:33;;;;;;;21.73;11.13;;;;;;;;;;10271315;28;20588;-65
2020/12/05 21:01:31;;;;;;;15.27;6.60;;;;;;;;;;10273344;28;20442;-64
2020/12/05 21:06:29;;;;;;;18.27;10.20;;;;;;;;;;10268631;28;20044;-64
2020/12/05 21:11:36;;;;;;;19.08;9.98;;;;;;;;;;10267396;28;20449;-63
2020/12/05 21:16:34;;;;;;;15.20;9.20;;;;;;;;;;10287176;28;20321;-63
2020/12/05 21:21:31;;;;;;;16.90;10.00;;;;;;;;;;10284410;28;20539;-63
2020/12/05 21:26:29;;;;;;;18.40;9.07;;;;;;;;;;10277541;28;20045;-64
2020/12/05 21:31:28;;;;;;;11.40;6.63;;;;;;;;;;10276851;28;20103;-65
2020/12/05 21:36:26;;;;;;;18.35;10.13;;;;;;;;;;10257347;28;20026;-64
2020/12/05 21:41:23;;;;;;;4.27;3.80;;;;;;;;;;10260049;28;20084;-64
2020/12/05 21:46:20;;;;;;;11.33;6.30;;;;;;;;;;10261230;28;20124;-63
2020/12/05 21:51:18;;;;;;;7.37;5.07;;;;;;;;;;10250019;28;20033;-63
2020/12/05 21:56:15;;;;;;;14.63;8.43;;;;;;;;;;10263916;28;20041;-62
2020/12/05 22:01:14;;;;;;;15.60;7.77;;;;;;;;;;10265470;28;20044;-64
2020/12/05 22:06:11;;;;;;;8.77;5.10;;;;;;;;;;10292575;28;20784;-65
2020/12/05 22:11:09;;;;;;;9.90;5.87;;;;;;;;;;10286422;28;20500;-64
2020/12/05 22:16:08;;;;;;;9.77;4.10;;;;;;;;;;10258457;28;20456;-63
2020/12/05 22:21:05;;;;;;;6.55;4.40;;;;;;;;;;10298004;28;20040;-64
2020/12/05 22:26:02;;;;;;;7.03;4.43;;;;;;;;;;10267317;28;20052;-65
2020/12/05 22:31:00;;;;;;;9.97;5.03;;;;;;;;;;10290453;28;20040;-64
2020/12/05 22:35:57;;;;;;;14.53;5.03;;;;;;;;;;10249972;28;20030;-65
2020/12/05 22:40:54;;;;;;;1.73;1.10;;;;;;;;;;10289911;28;20507;-64
2020/12/05 22:45:52;;;;;;;3.93;2.80;;;;;;;;;;10235472;28;20037;-63
2020/12/05 22:50:49;;;;;;;8.53;5.70;;;;;;;;;;10266614;28;20520;-64
2020/12/05 22:55:47;;;;;;;6.70;3.37;;;;;;;;;;10260461;28;20424;-64
2020/12/05 23:00:48;;;;;;;3.97;3.27;;;;;;;;;;10291771;28;20033;-64
2020/12/05 23:05:46;;;;;;;12.98;6.97;;;;;;;;;;10274327;28;20385;-64
2020/12/05 23:10:43;;;;;;;17.17;8.93;;;;;;;;;;10251228;28;20037;-64
2020/12/05 23:15:41;;;;;;;13.33;6.70;;;;;;;;;;10279749;28;20491;-64
2020/12/05 23:20:39;;;;;;;9.43;5.43;;;;;;;;;;10259955;28;20175;-64
2020/12/05 23:25:37;;;;;;;7.70;4.30;;;;;;;;;;10285407;28;20037;-64
2020/12/05 23:30:54;;;;;;;4.28;3.85;;;;;;;;;;10248835;28;20121;-65
2020/12/05 23:35:52;;;;;;;5.47;3.97;;;;;;;;;;10249230;28;20037;-63
2020/12/05 23:40:49;;;;;;;13.73;7.23;;;;;;;;;;10258825;28;20030;-63
2020/12/05 23:45:47;;;;;;;12.60;7.80;;;;;;;;;;10273255;28;20079;-64
2020/12/05 23:50:44;;;;;;;9.20;4.00;;;;;;;;;;10275987;28;20038;-64
2020/12/05 23:55:42;;;;;;;5.23;4.67;;;;;;;;;;10275934;28;20049;-65
